createdAt,value
2023-05-14T00:00:49.040Z,100714.50
2023-05-14T00:03:51.722Z,100709.38
2023-05-14T00:06:53.959Z,100701.13
2023-05-14T00:09:57.513Z,100701.13
2023-05-14T00:12:59.656Z,100704.63
2023-05-14T00:16:02.338Z,100698.25
2023-05-14T00:19:04.486Z,100693.28
2023-05-14T00:22:06.943Z,100688.34
2023-05-14T00:25:09.665Z,100683.91
2023-05-14T00:28:12.129Z,100697.41
2023-05-14T00:31:14.812Z,100688.63
2023-05-14T00:34:17.228Z,100690.84
2023-05-14T00:37:19.423Z,100677.16
2023-05-14T00:40:26.639Z,100687.00
2023-05-14T00:43:28.832Z,100679.75
2023-05-14T00:46:31.676Z,100682.25
2023-05-14T00:49:34.475Z,100669.22
2023-05-14T00:52:38.440Z,100669.56
2023-05-14T00:55:42.170Z,100670.75
2023-05-14T00:58:44.870Z,100666.63
2023-05-14T01:01:47.029Z,100658.94
2023-05-14T01:04:50.325Z,100654.81
2023-05-14T01:08:02.381Z,100654.03
2023-05-14T01:11:11.382Z,100651.03
2023-05-14T01:14:16.416Z,100639.41
2023-05-14T01:17:20.381Z,100650.41
2023-05-14T01:20:23.428Z,100645.28
2023-05-14T01:23:26.277Z,100641.44
2023-05-14T01:26:30.459Z,100645.25
2023-05-14T01:29:36.885Z,100636.97
2023-05-14T01:32:40.519Z,100624.94
2023-05-14T01:35:44.465Z,100632.44
2023-05-14T01:38:49.424Z,100629.91
2023-05-14T01:41:52.680Z,100626.69
2023-05-14T01:44:55.687Z,100614.72
2023-05-14T01:47:58.324Z,100608.03
2023-05-14T01:51:00.850Z,100607.66
2023-05-14T01:54:03.482Z,100606.91
2023-05-14T01:57:05.651Z,100586.59
2023-05-14T02:00:08.503Z,100580.38
2023-05-14T02:03:15.894Z,100571.97
2023-05-14T02:06:18.352Z,100578.88
2023-05-14T02:09:20.557Z,100578.06
2023-05-14T02:12:22.951Z,100586.00
2023-05-14T02:15:25.413Z,100579.22
2023-05-14T02:18:27.635Z,100578.53
2023-05-14T02:21:30.098Z,100579.34
2023-05-14T02:24:32.209Z,100577.06
2023-05-14T02:27:34.601Z,100579.94
2023-05-14T02:30:36.866Z,100584.72
2023-05-14T02:33:39.373Z,100578.19
2023-05-14T02:36:41.749Z,100571.41
2023-05-14T02:39:44.136Z,100575.91
2023-05-14T02:42:46.376Z,100571.41
2023-05-14T02:45:48.801Z,100573.03
2023-05-14T02:48:51.046Z,100576.91
2023-05-14T02:51:54.369Z,100575.59
2023-05-14T02:54:56.485Z,100570.00
2023-05-14T02:57:58.944Z,100569.88
2023-05-14T03:01:01.200Z,100576.94
2023-05-14T03:04:04.457Z,100562.28
2023-05-14T03:07:06.628Z,100569.44
2023-05-14T03:10:09.571Z,100573.06
2023-05-14T03:13:11.772Z,100569.09
2023-05-14T03:16:14.271Z,100566.63
2023-05-14T03:19:16.502Z,100571.50
2023-05-14T03:22:19.369Z,100562.06
2023-05-14T03:25:23.141Z,100571.81
2023-05-14T03:28:27.020Z,100567.09
2023-05-14T03:31:29.423Z,100563.72
2023-05-14T03:34:32.153Z,100558.16
2023-05-14T03:37:34.324Z,100564.16
2023-05-14T03:40:36.900Z,100555.91
2023-05-14T03:43:39.050Z,100568.78
2023-05-14T03:46:41.518Z,100573.25
2023-05-14T03:49:43.758Z,100563.53
2023-05-14T03:52:46.293Z,100562.25
2023-05-14T03:55:48.407Z,100548.78
2023-05-14T03:58:52.916Z,100544.03
2023-05-14T04:01:55.255Z,100542.78
2023-05-14T04:04:57.787Z,100548.50
2023-05-14T04:08:00.846Z,100553.09
2023-05-14T04:11:03.439Z,100548.66
2023-05-14T04:14:06.168Z,100555.06
2023-05-14T04:17:08.652Z,100545.47
2023-05-14T04:20:10.939Z,100548.28
2023-05-14T04:23:13.363Z,100543.50
2023-05-14T04:26:15.554Z,100538.56
2023-05-14T04:29:17.957Z,100548.19
2023-05-14T04:32:20.335Z,100551.88
2023-05-14T04:35:24.811Z,100535.13
2023-05-14T04:38:28.082Z,100535.44
2023-05-14T04:41:30.644Z,100528.84
2023-05-14T04:44:34.556Z,100554.34
2023-05-14T04:47:36.977Z,100544.31
2023-05-14T04:50:39.381Z,100542.37
2023-05-14T04:53:41.823Z,100542.97
2023-05-14T04:56:43.941Z,100533.06
2023-05-14T04:59:46.453Z,100546.28
2023-05-14T05:02:48.633Z,100535.63
2023-05-14T05:05:51.967Z,100537.22
2023-05-14T05:08:54.063Z,100530.50
2023-05-14T05:11:56.572Z,100535.44
2023-05-14T05:14:58.733Z,100534.12
2023-05-14T05:18:01.236Z,100525.22
2023-05-14T05:21:03.824Z,100533.62
2023-05-14T05:24:07.758Z,100523.47
2023-05-14T05:27:09.926Z,100525.03
2023-05-14T05:30:12.622Z,100525.50
2023-05-14T05:33:14.985Z,100526.84
2023-05-14T05:36:17.428Z,100528.53
2023-05-14T05:39:19.544Z,100528.91
2023-05-14T05:42:22.567Z,100520.78
2023-05-14T05:45:24.704Z,100522.50
2023-05-14T05:48:27.158Z,100517.47
2023-05-14T05:51:30.098Z,100526.72
2023-05-14T05:54:32.623Z,100526.09
2023-05-14T05:57:34.770Z,100525.28
2023-05-14T06:00:37.191Z,100520.03
2023-05-14T06:03:39.695Z,100528.44
2023-05-14T06:06:41.901Z,100529.09
2023-05-14T06:09:44.332Z,100527.53
2023-05-14T06:12:46.473Z,100541.53
2023-05-14T06:15:48.894Z,100532.72
2023-05-14T06:18:52.653Z,100538.75
2023-05-14T06:21:55.776Z,100532.41
2023-05-14T06:24:57.895Z,100535.06
2023-05-14T06:28:00.335Z,100539.38
2023-05-14T06:31:02.430Z,100542.37
2023-05-14T06:34:04.848Z,100549.88
2023-05-14T06:37:07.129Z,100550.72
2023-05-14T06:40:10.722Z,100541.13
2023-05-14T06:43:12.828Z,100539.88
2023-05-14T06:46:15.307Z,100538.47
2023-05-14T06:49:17.894Z,100532.00
2023-05-14T06:52:20.326Z,100522.44
2023-05-14T06:55:22.625Z,100515.56
2023-05-14T06:58:25.165Z,100511.78
2023-05-14T07:01:27.456Z,100516.56
2023-05-14T07:04:30.459Z,100508.56
2023-05-14T07:07:32.579Z,100511.59
2023-05-14T07:10:35.220Z,100497.13
2023-05-14T07:13:37.333Z,100503.12
2023-05-14T07:16:40.237Z,100492.47
2023-05-14T07:19:42.410Z,100490.91
2023-05-14T07:22:44.852Z,100488.00
2023-05-14T07:25:47.000Z,100491.03
2023-05-14T07:28:49.427Z,100488.03
2023-05-14T07:31:51.870Z,100482.16
2023-05-14T07:34:54.348Z,100483.91
2023-05-14T07:37:56.523Z,100476.59
2023-05-14T07:40:58.973Z,100476.28
2023-05-14T07:44:01.223Z,100478.69
2023-05-14T07:47:04.275Z,100481.53
2023-05-14T07:50:07.115Z,100474.69
2023-05-14T07:53:09.531Z,100471.16
2023-05-14T07:56:11.692Z,100464.47
2023-05-14T07:59:14.086Z,100464.66
2023-05-14T08:02:16.980Z,100465.72
2023-05-14T08:05:19.827Z,100454.75
2023-05-14T08:08:21.984Z,100445.16
2023-05-14T08:11:24.472Z,100446.91
2023-05-14T08:14:26.575Z,100439.44
2023-05-14T08:17:29.000Z,100439.91
2023-05-14T08:20:31.389Z,100431.59
2023-05-14T08:23:33.916Z,100433.31
2023-05-14T08:26:36.344Z,100428.69
2023-05-14T08:29:38.799Z,100421.66
2023-05-14T08:32:41.120Z,100411.16
2023-05-14T08:35:43.846Z,100415.81
2023-05-14T08:38:46.114Z,100414.34
2023-05-14T08:41:48.750Z,100407.97
2023-05-14T08:45:03.741Z,100410.37
2023-05-14T08:48:08.953Z,100402.87
2023-05-14T08:51:11.325Z,100401.25
2023-05-14T08:54:17.787Z,100397.44
2023-05-14T08:57:24.626Z,100400.94
2023-05-14T09:00:27.233Z,100405.09
2023-05-14T09:03:30.810Z,100402.22
2023-05-14T09:06:33.514Z,100398.88
2023-05-14T09:09:36.560Z,100400.47
2023-05-14T09:12:39.008Z,100399.34
2023-05-14T09:15:41.568Z,100400.13
2023-05-14T09:18:45.440Z,100406.50
2023-05-14T09:21:49.310Z,100394.41
2023-05-14T09:25:09.474Z,100399.19
2023-05-14T09:28:11.800Z,100384.97
2023-05-14T09:31:14.332Z,100382.87
2023-05-14T09:34:30.669Z,100381.62
2023-05-14T09:37:36.689Z,100372.03
2023-05-14T09:40:39.219Z,100371.69
2023-05-14T09:43:41.838Z,100374.41
2023-05-14T09:46:44.888Z,100359.09
2023-05-14T09:49:48.797Z,100351.09
2023-05-14T09:52:50.930Z,100348.06
2023-05-14T09:55:53.385Z,100341.22
2023-05-14T09:58:55.740Z,100354.91
2023-05-14T10:01:58.655Z,100345.63
2023-05-14T10:05:03.977Z,100338.31
2023-05-14T10:08:11.971Z,100325.22
2023-05-14T10:11:20.781Z,100313.81
2023-05-14T10:14:38.046Z,100299.78
2023-05-14T11:14:23.340Z,100255.47
2023-05-14T11:17:29.893Z,100249.09
2023-05-14T11:20:32.776Z,100243.81
2023-05-14T11:23:35.282Z,100247.84
2023-05-14T11:26:37.606Z,100240.37
2023-05-14T11:29:45.084Z,100249.38
2023-05-14T11:32:48.857Z,100241.69
2023-05-14T11:35:52.018Z,100240.44
2023-05-14T11:38:54.189Z,100238.97
2023-05-14T11:41:57.988Z,100240.09
2023-05-14T11:45:01.297Z,100247.28
2023-05-14T11:48:11.994Z,100238.53
2023-05-14T11:51:14.131Z,100236.63
2023-05-14T11:54:16.566Z,100243.63
2023-05-14T11:57:20.945Z,100237.41
2023-05-14T12:00:24.988Z,100219.87
2023-05-14T12:03:30.134Z,100217.00
2023-05-14T12:06:32.574Z,100210.00
2023-05-14T12:09:39.168Z,100204.56
2023-05-14T12:12:46.862Z,100210.66
2023-05-14T12:15:56.172Z,100204.09
2023-05-14T12:19:01.787Z,100185.56
2023-05-14T12:22:04.394Z,100188.69
2023-05-14T12:25:13.301Z,100190.91
2023-05-14T12:28:19.579Z,100189.13
2023-05-14T12:31:28.582Z,100187.66
2023-05-14T12:34:31.082Z,100182.59
2023-05-14T12:37:34.038Z,100174.78
2023-05-14T12:40:36.447Z,100183.00
2023-05-14T12:43:42.815Z,100184.28
2023-05-14T12:46:45.347Z,100175.06
2023-05-14T12:49:47.563Z,100182.09
2023-05-14T12:52:50.010Z,100178.63
2023-05-14T12:55:52.392Z,100163.66
2023-05-14T12:58:56.400Z,100156.59
2023-05-14T13:01:58.573Z,100152.81
2023-05-14T13:05:02.766Z,100146.44
2023-05-14T13:08:05.055Z,100140.09
2023-05-14T13:11:08.320Z,100124.09
2023-05-14T13:14:10.443Z,100129.38
2023-05-14T13:17:12.866Z,100135.37
2023-05-14T13:20:17.747Z,100131.41
2023-05-14T13:23:20.172Z,100118.13
2023-05-14T13:26:22.509Z,100114.00
2023-05-14T13:29:25.028Z,100107.16
2023-05-14T13:32:27.273Z,100100.72
2023-05-14T13:35:29.780Z,100096.44
2023-05-14T13:38:32.144Z,100099.94
2023-05-14T13:41:37.930Z,100096.31
2023-05-14T13:44:40.165Z,100084.72
2023-05-14T13:47:42.706Z,100082.53
2023-05-14T13:50:44.979Z,100076.94
2023-05-14T13:53:47.393Z,100073.81
2023-05-14T13:56:49.552Z,100066.00
2023-05-14T13:59:51.960Z,100059.78
2023-05-14T14:02:54.256Z,100056.72
2023-05-14T14:05:56.775Z,100056.94
2023-05-14T14:08:58.941Z,100060.72
2023-05-14T14:12:04.084Z,100047.16
2023-05-14T14:15:06.994Z,100044.25
2023-05-14T14:18:09.416Z,100045.84
2023-05-14T14:21:11.939Z,100056.44
2023-05-14T14:24:14.380Z,100061.84
2023-05-14T14:27:16.538Z,100056.88
2023-05-14T14:30:19.188Z,100051.47
2023-05-14T14:33:21.342Z,100054.22
2023-05-14T14:36:23.794Z,100050.06
2023-05-14T14:39:26.512Z,100047.63
2023-05-14T14:42:28.954Z,100043.47
2023-05-14T14:45:31.196Z,100048.91
2023-05-14T14:48:37.781Z,100046.50
2023-05-14T14:51:40.679Z,100028.28
2023-05-14T14:54:43.128Z,100035.00
2023-05-14T14:57:45.394Z,100037.09
2023-05-14T15:00:50.768Z,100026.06
2023-05-14T15:03:53.157Z,100018.19
2023-05-14T15:06:55.669Z,100012.28
2023-05-14T15:09:57.796Z,100007.34
2023-05-14T15:13:00.228Z,100002.22
2023-05-14T15:16:02.415Z,100003.22
2023-05-14T15:19:04.844Z,99992.50
2023-05-14T15:22:07.046Z,99997.66
2023-05-14T15:25:10.087Z,99995.13
2023-05-14T15:28:12.341Z,99992.13
2023-05-14T15:31:14.759Z,99992.59
2023-05-14T15:34:17.021Z,99995.19
2023-05-14T15:37:19.467Z,99993.28
2023-05-14T15:40:21.628Z,100004.28
2023-05-14T15:43:24.138Z,100002.87
2023-05-14T15:46:26.676Z,99998.41
2023-05-14T15:49:29.124Z,99999.06
2023-05-14T15:52:31.552Z,99992.72
2023-05-14T15:55:33.991Z,99975.66
2023-05-14T15:58:36.094Z,99957.00
2023-05-14T16:01:38.586Z,99950.63
2023-05-14T16:04:41.345Z,99940.91
2023-05-14T16:07:43.719Z,99926.47
2023-05-14T16:10:46.121Z,99925.97
2023-05-14T16:13:48.551Z,99930.59
2023-05-14T16:16:51.165Z,99938.78
2023-05-14T16:19:56.053Z,99932.69
2023-05-14T16:22:58.999Z,99933.03
2023-05-14T16:26:01.338Z,99940.63
2023-05-14T16:29:04.178Z,99948.44
2023-05-14T16:32:06.541Z,99942.66
2023-05-14T16:35:09.414Z,99937.31
2023-05-14T16:38:11.568Z,99938.09
2023-05-14T16:41:14.139Z,99931.56
2023-05-14T16:44:16.479Z,99929.53
2023-05-14T16:47:18.946Z,99923.44
2023-05-14T16:50:21.277Z,99912.88
2023-05-14T16:53:23.736Z,99899.03
2023-05-14T16:56:26.551Z,99900.19
2023-05-14T16:59:29.025Z,99894.91
2023-05-14T17:02:31.239Z,99897.22
2023-05-14T17:05:34.895Z,99892.13
2023-05-14T17:08:37.114Z,99884.66
2023-05-14T17:11:39.590Z,99887.16
2023-05-14T17:14:41.791Z,99894.37
2023-05-14T17:17:44.327Z,99888.03
2023-05-14T17:20:46.490Z,99884.00
2023-05-14T17:23:49.043Z,99873.00
2023-05-14T17:26:51.142Z,99867.28
2023-05-14T17:29:53.630Z,99857.50
2023-05-14T17:32:56.280Z,99850.88
2023-05-14T17:35:58.811Z,99850.41
2023-05-14T17:39:00.966Z,99837.25
2023-05-14T17:42:03.645Z,99834.78
2023-05-14T17:45:06.537Z,99839.69
2023-05-14T17:48:09.060Z,99845.12
2023-05-14T17:51:11.249Z,99853.47
2023-05-14T17:54:13.684Z,99847.91
2023-05-14T17:57:15.912Z,99845.19
2023-05-14T18:00:18.528Z,99836.72
2023-05-14T18:03:21.034Z,99826.56
2023-05-14T18:06:23.304Z,99821.16
2023-05-14T18:09:25.855Z,99831.66
2023-05-14T18:12:29.034Z,99824.47
2023-05-14T18:15:31.553Z,99816.63
2023-05-14T18:18:34.043Z,99823.84
2023-05-14T18:21:36.494Z,99822.19
2023-05-14T18:24:38.644Z,99824.72
2023-05-14T18:27:45.202Z,99829.34
2023-05-14T18:30:49.067Z,99821.59
2023-05-14T18:33:51.752Z,99813.72
2023-05-14T18:36:54.054Z,99820.50
2023-05-14T18:39:56.448Z,99807.94
2023-05-14T18:42:58.595Z,99815.47
2023-05-14T18:46:01.136Z,99810.84
2023-05-14T18:49:03.368Z,99814.22
2023-05-14T18:52:06.752Z,99817.78
2023-05-14T18:55:09.176Z,99825.91
2023-05-14T18:58:12.064Z,99822.06
2023-05-14T19:01:14.248Z,99834.50
2023-05-14T19:04:16.691Z,99821.88
2023-05-14T19:07:19.220Z,99818.03
2023-05-14T19:10:21.659Z,99828.06
2023-05-14T19:13:23.866Z,99836.22
2023-05-14T19:16:26.790Z,99826.50
2023-05-14T19:19:29.032Z,99813.94
2023-05-14T19:22:31.666Z,99811.88
2023-05-14T19:25:34.074Z,99808.63
2023-05-14T19:28:37.936Z,99804.22
2023-05-14T19:31:40.107Z,99807.78
2023-05-14T19:34:42.620Z,99813.22
2023-05-14T19:37:45.948Z,99804.72
2023-05-14T19:40:48.483Z,99807.97
2023-05-14T19:43:50.659Z,99806.81
2023-05-14T19:46:53.143Z,99799.12
2023-05-14T19:49:55.411Z,99795.50
2023-05-14T19:52:58.071Z,99801.03
2023-05-14T19:56:01.882Z,99798.47
2023-05-14T19:59:04.266Z,99790.19
2023-05-14T20:02:06.456Z,99796.41
2023-05-14T20:05:09.158Z,99790.53
2023-05-14T20:08:12.100Z,99787.63
2023-05-14T20:11:15.686Z,99783.59
2023-05-14T20:14:18.032Z,99777.38
2023-05-14T20:17:23.348Z,99780.41
2023-05-14T20:20:25.806Z,99777.50
2023-05-14T20:23:28.589Z,99774.13
2023-05-14T20:26:31.084Z,99778.88
2023-05-14T20:29:33.544Z,99783.06
2023-05-14T20:32:35.855Z,99770.94
2023-05-14T20:35:38.420Z,99773.19
2023-05-14T20:38:40.817Z,99768.47
2023-05-14T20:41:45.451Z,99756.16
2023-05-14T20:44:48.636Z,99738.66
2023-05-14T20:47:51.113Z,99743.59
2023-05-14T20:50:53.369Z,99741.56
2023-05-14T20:53:55.956Z,99728.13
2023-05-14T20:56:58.070Z,99736.25
2023-05-14T21:00:00.561Z,99732.75
2023-05-14T21:03:02.796Z,99718.84
2023-05-14T21:06:05.380Z,99719.22
2023-05-14T21:09:07.574Z,99712.69
2023-05-14T21:12:10.231Z,99708.19
2023-05-14T21:15:12.439Z,99714.50
2023-05-14T21:18:14.855Z,99704.19
2023-05-14T21:21:17.068Z,99710.31
2023-05-14T21:24:19.534Z,99702.38
2023-05-14T21:27:22.172Z,99693.25
2023-05-14T21:30:24.673Z,99689.06
2023-05-14T21:33:26.819Z,99687.47
2023-05-14T21:36:29.272Z,99683.53
2023-05-14T21:39:31.466Z,99661.53
2023-05-14T21:42:33.866Z,99648.63
2023-05-14T21:45:36.050Z,99654.53
2023-05-14T21:48:38.474Z,99647.06
2023-05-14T21:51:40.694Z,99636.22
2023-05-14T21:54:43.118Z,99635.91
2023-05-14T21:57:45.458Z,99634.97
2023-05-14T22:00:47.905Z,99640.28
2023-05-14T22:03:50.383Z,99637.00
2023-05-14T22:06:52.646Z,99647.75
2023-05-14T22:09:55.128Z,99654.97
2023-05-14T22:12:57.300Z,99650.66
2023-05-14T22:16:09.211Z,99655.75
2023-05-14T22:19:16.372Z,99666.94
2023-05-14T22:22:18.949Z,99658.94
2023-05-14T22:25:21.083Z,99655.97
2023-05-14T22:28:23.799Z,99656.75
2023-05-14T22:31:25.990Z,99654.62
2023-05-14T22:34:28.464Z,99652.25
2023-05-14T22:37:30.779Z,99649.87
2023-05-14T22:40:33.284Z,99651.81
2023-05-14T22:43:35.548Z,99651.13
2023-05-14T22:46:38.011Z,99657.09
2023-05-14T22:49:40.826Z,99655.06
2023-05-14T22:52:43.252Z,99659.81
2023-05-14T22:55:45.567Z,99654.16
2023-05-14T22:58:48.029Z,99658.34
2023-05-14T23:01:50.433Z,99653.38
2023-05-14T23:04:53.012Z,99649.09
2023-05-14T23:07:55.467Z,99647.28
2023-05-14T23:10:57.912Z,99638.34
2023-05-14T23:14:00.046Z,99641.75
2023-05-14T23:17:02.436Z,99632.47
2023-05-14T23:20:05.960Z,99625.34
2023-05-14T23:23:08.399Z,99621.41
2023-05-14T23:26:10.651Z,99611.00
2023-05-14T23:29:13.060Z,99605.37
2023-05-14T23:32:15.318Z,99598.16
2023-05-14T23:35:17.755Z,99598.94
2023-05-14T23:38:20.789Z,99582.56
2023-05-14T23:41:23.294Z,99585.75
2023-05-14T23:44:25.463Z,99594.53
2023-05-14T23:47:28.084Z,99591.81
2023-05-14T23:50:31.094Z,99580.97
2023-05-14T23:53:33.540Z,99568.56
2023-05-14T23:56:35.775Z,99564.16
2023-05-14T23:59:40.017Z,99573.75
